Weather reports worldwide

Advertisment
Torino/Bric Della Croce, Italy (16061): temperature & dewpoint: 13.03.2019 10:00:00 - 19.03.2019 10:00:00 (CET)Torino/Bric Della Croce, Italy (16061): wind speed: 13.03.2019 10:00:00 - 19.03.2019 10:00:00 (CET)Torino/Bric Della Croce, Italy (16061): wind direction: 13.03.2019 10:00:00 - 19.03.2019 10:00:00 (CET)Torino/Bric Della Croce, Italy (16061): visibility: 13.03.2019 10:00:00 - 19.03.2019 10:00:00 (CET)Torino/Bric Della Croce, Italy (16061): sunshine duration: 13.03.2019 10:00:00 - 19.03.2019 10:00:00 (CET)
Date & Time tt [°C] td [°C] ff [km/h] ff [kn] dd vv [km] sd [min]
19.03.2019 10:00:00 - - - - - - -
19.03.2019 09:00:00 4,8 0,9 0 0 N 40 60
19.03.2019 08:00:00 4,0 0,2 4 2 ENE 40 24
19.03.2019 07:00:00 3,8 0,8 8 4 NNE 40 -
19.03.2019 06:00:00 3,4 1,9 8 4 N 30 -
19.03.2019 05:00:00 3,0 3,0 5 3 N 30 -
19.03.2019 04:00:00 3,0 3,0 11 6 NNW 30 -
19.03.2019 03:00:00 3,2 2,5 11 6 NNW 30 -
19.03.2019 02:00:00 3,6 -2,0 13 7 NNW 30 -
19.03.2019 01:00:00 5,0 -4,6 8 4 NE 50 -
19.03.2019 00:00:00 5,4 -14,1 13 7 E 50 -
18.03.2019 23:00:00 6,0 -15,3 16 9 E 50 -
18.03.2019 22:00:00 6,6 -15,4 24 13 NE 50 -
18.03.2019 21:00:00 7,2 -16,2 18 10 ENE 50 -
18.03.2019 20:00:00 8,0 -15,6 15 8 ENE 50 -
18.03.2019 19:00:00 9,0 -16,3 16 9 E 50 24
18.03.2019 18:00:00 11,4 -15,2 9 5 ENE 50 60
18.03.2019 17:00:00 11,4 -15,2 5 3 NNE 50 60
18.03.2019 16:00:00 12,0 -14,7 11 6 E 40 60
18.03.2019 15:00:00 11,0 -15,5 9 5 WNW 30 60
18.03.2019 14:00:00 11,0 -15,5 5 3 NNW 40 60
18.03.2019 13:00:00 10,2 -13,1 13 7 NW 40 60
18.03.2019 12:00:00 9,2 -13,9 0 0 N 50 60
18.03.2019 11:00:00 8,6 -8,9 0 0 N 40 60
18.03.2019 10:00:00 7,4 -7,4 0 0 N 40 48
18.03.2019 09:00:00 6,6 -16,0 8 4 W 50 54
18.03.2019 08:00:00 6,2 -14,5 9 5 WNW 50 0
18.03.2019 07:00:00 6,0 -14,7 8 4 WNW 50 -
18.03.2019 06:00:00 6,0 -15,3 13 7 WNW 50 -
18.03.2019 05:00:00 6,0 -15,3 22 12 WNW 50 -
18.03.2019 04:00:00 6,0 -12,5 29 16 WNW 50 -
18.03.2019 03:00:00 6,2 -10,1 35 19 WNW 50 -
18.03.2019 02:00:00 6,6 -3,9 37 20 WNW 50 -
18.03.2019 01:00:00 7,0 6,7 22 12 WNW 0,3 -
18.03.2019 00:00:00 7,0 7,0 5 3 NNW 0,3 -
17.03.2019 23:00:00 7,4 7,4 5 3 WNW 0,3 -
17.03.2019 22:00:00 7,4 7,4 5 3 N 0,3 -
17.03.2019 21:00:00 7,8 7,8 0 0 N 20 -
17.03.2019 20:00:00 7,8 7,8 9 5 E 20 -
17.03.2019 19:00:00 8,0 8,0 5 3 E 20 0
17.03.2019 18:00:00 8,6 8,6 8 4 E 20 0
17.03.2019 17:00:00 8,6 8,6 0 0 N 20 0
17.03.2019 16:00:00 9,0 8,4 0 0 N 20 0
17.03.2019 15:00:00 8,4 8,4 0 0 N 20 0
17.03.2019 14:00:00 8,6 8,0 0 0 N 20 0
17.03.2019 13:00:00 8,2 8,2 0 0 N 20 0
17.03.2019 12:00:00 8,0 8,0 0 0 N 20 0
17.03.2019 11:00:00 8,0 8,0 0 0 N 20 0
17.03.2019 10:00:00 8,2 8,2 0 0 N 20 0
17.03.2019 09:00:00 8,0 8,0 0 0 N 15 0
17.03.2019 08:00:00 7,4 7,4 8 4 NNW 15 0
17.03.2019 07:00:00 7,2 7,2 9 5 NNW 20 -
17.03.2019 06:00:00 7,4 7,4 8 4 N 30 -
17.03.2019 05:00:00 8,6 8,6 0 0 N 30 -
17.03.2019 04:00:00 8,6 8,6 0 0 N 30 -
17.03.2019 03:00:00 9,2 -30,0 5 3 S 30 -
17.03.2019 02:00:00 9,4 8,0 8 4 SSE 30 -
17.03.2019 01:00:00 9,8 7,2 13 7 S 30 -
17.03.2019 00:00:00 11,0 7,1 11 6 S 30 -
16.03.2019 23:00:00 11,8 6,5 11 6 S 30 -
16.03.2019 22:00:00 12,4 6,7 9 5 S 30 -
16.03.2019 21:00:00 13,6 5,5 4 2 W 40 -
16.03.2019 20:00:00 13,0 6,1 9 5 SE 40 -
16.03.2019 19:00:00 14,4 5,2 9 5 SE 40 6
16.03.2019 18:00:00 16,4 5,1 9 5 SE 40 60
16.03.2019 17:00:00 17,4 3,0 5 3 SSE 40 60
16.03.2019 16:00:00 17,4 2,6 5 3 SSE 40 60
16.03.2019 15:00:00 16,6 2,6 8 4 S 50 60
16.03.2019 14:00:00 16,2 2,6 11 6 SSW 40 60
16.03.2019 13:00:00 15,6 1,7 5 3 NE 40 60
16.03.2019 12:00:00 14,4 1,0 0 0 N 30 60
16.03.2019 11:00:00 13,8 1,1 4 2 SE 50 42
16.03.2019 10:00:00 12,8 -0,5 4 2 NNW 40 0
16.03.2019 09:00:00 13,0 -2,5 0 0 N 50 0
16.03.2019 08:00:00 12,8 -3,1 9 5 NNW 50 0
16.03.2019 07:00:00 13,0 -2,9 8 4 NNW 50 -
16.03.2019 06:00:00 13,0 -2,5 13 7 WNW 50 -
16.03.2019 05:00:00 13,0 -2,5 22 12 WNW 50 -
16.03.2019 04:00:00 13,0 -2,1 29 16 W 50 -
16.03.2019 03:00:00 13,0 -2,5 34 18 WNW 50 -
16.03.2019 02:00:00 13,2 -2,7 37 20 WNW 50 -
16.03.2019 01:00:00 13,6 -2,8 29 16 WNW 50 -
16.03.2019 00:00:00 13,6 -2,4 28 15 WNW 50 -
15.03.2019 23:00:00 13,4 -2,5 29 16 WNW 50 -
15.03.2019 22:00:00 13,0 -1,7 34 18 WNW 50 -
15.03.2019 21:00:00 13,0 -1,7 37 20 WNW 50 -
15.03.2019 20:00:00 13,2 -1,5 42 23 WNW 50 -
15.03.2019 19:00:00 13,8 -1,4 44 24 WNW 50 6
15.03.2019 18:00:00 15,0 -0,7 29 16 W 50 30
15.03.2019 17:00:00 15,0 0,1 22 12 W 50 0
15.03.2019 16:00:00 15,2 0,2 9 5 ESE 50 36
15.03.2019 15:00:00 15,6 0,6 9 5 S 50 60
15.03.2019 14:00:00 14,8 0,3 8 4 S 50 60
15.03.2019 13:00:00 13,6 1,3 0 0 N 40 60
15.03.2019 12:00:00 12,0 0,4 11 6 SSE 50 60
15.03.2019 11:00:00 11,2 0,9 15 8 SE 50 60
15.03.2019 10:00:00 10,2 1,6 15 8 WSW 50 60
15.03.2019 09:00:00 8,8 2,2 15 8 SSE 50 60
15.03.2019 08:00:00 9,8 2,4 9 5 ESE 60 24
15.03.2019 07:00:00 10,2 -0,3 8 4 NNE 60 -
15.03.2019 06:00:00 9,8 -0,4 16 9 N 50 -
15.03.2019 05:00:00 10,0 -1,7 26 14 WNW 50 -
15.03.2019 04:00:00 10,4 -2,0 13 7 NW 50 -
15.03.2019 03:00:00 10,4 -2,6 16 9 NW 50 -
15.03.2019 02:00:00 10,2 -2,1 28 15 WNW 50 -
15.03.2019 01:00:00 9,8 -0,7 22 12 WNW 50 -
15.03.2019 00:00:00 9,2 1,8 24 13 WNW 50 -
14.03.2019 23:00:00 8,8 3,0 37 20 WNW 50 -
14.03.2019 22:00:00 8,4 3,7 41 22 WNW 50 -
14.03.2019 21:00:00 8,4 3,1 34 18 WNW 50 -
14.03.2019 20:00:00 9,0 1,0 26 14 WNW 50 -
14.03.2019 19:00:00 9,2 -2,4 34 18 WNW 50 -
14.03.2019 18:00:00 10,2 -5,0 34 18 WNW 50 42
14.03.2019 17:00:00 12,2 -8,9 8 4 E 50 60
14.03.2019 16:00:00 12,4 -8,7 9 5 NNW 50 60
14.03.2019 15:00:00 12,2 -7,8 11 6 SSE 50 60
14.03.2019 14:00:00 11,4 -7,9 13 7 SSE 50 60
14.03.2019 13:00:00 10,8 -7,0 9 5 S 40 60
14.03.2019 12:00:00 10,0 -7,7 9 5 SSW 40 60
14.03.2019 11:00:00 9,0 -7,7 9 5 SSW 35 60
14.03.2019 10:00:00 7,4 -14,1 9 5 W 30 60
14.03.2019 09:00:00 7,0 -10,3 16 9 WNW 50 60
14.03.2019 08:00:00 7,0 -11,2 11 6 NW 50 24
14.03.2019 07:00:00 7,0 -11,2 15 8 NNW 50 -
14.03.2019 06:00:00 7,0 -10,3 16 9 WNW 50 -
14.03.2019 05:00:00 6,8 -9,6 26 14 WNW 50 -
14.03.2019 04:00:00 7,0 -9,4 22 12 WNW 50 -
14.03.2019 03:00:00 7,0 -9,4 21 11 SSW 50 -
14.03.2019 02:00:00 - - - - - - -
14.03.2019 01:00:00 7,0 -11,2 26 14 WNW 50 -
14.03.2019 00:00:00 7,0 -10,7 22 12 WNW 50 -
13.03.2019 23:00:00 6,8 -10,9 24 13 WNW 50 -
13.03.2019 22:00:00 6,6 -10,6 29 16 WNW 50 -
13.03.2019 21:00:00 6,8 -10,4 29 16 WNW 50 -
13.03.2019 20:00:00 7,2 -10,1 31 17 WNW 50 -
13.03.2019 19:00:00 7,6 -13,4 24 13 WNW 50 -
13.03.2019 18:00:00 9,0 -14,8 29 16 WNW 50 60
13.03.2019 17:00:00 9,6 -14,3 31 17 WNW 50 60
13.03.2019 16:00:00 10,4 -12,9 21 11 N 50 60
13.03.2019 15:00:00 10,2 -10,6 24 13 WNW 50 60
13.03.2019 14:00:00 9,6 -6,7 11 6 NW 50 60
13.03.2019 13:00:00 8,4 -6,2 11 6 NW 50 60
13.03.2019 12:00:00 7,8 -4,3 5 3 WNW 50 60
13.03.2019 11:00:00 6,8 -2,1 4 2 E 50 60
13.03.2019 10:00:00 5,2 -1,9 5 3 N 50 60

tt = temperature
td = dewpoint
ff = wind speed
dd = wind direction
vv = visibility
sd = sunshine duration

Next stations